createdAt,value
2018-06-08T00:00:32.067Z,11.22
2018-06-08T00:03:02.081Z,11.40
2018-06-08T00:05:32.055Z,11.68
2018-06-08T00:08:02.171Z,12.30
2018-06-08T00:10:32.155Z,11.65
2018-06-08T00:13:02.178Z,10.50
2018-06-08T00:15:32.163Z,10.88
2018-06-08T00:18:02.164Z,10.20
2018-06-08T00:20:32.165Z,9.95
2018-06-08T00:23:02.153Z,9.50
2018-06-08T00:25:32.127Z,10.30
2018-06-08T00:28:02.109Z,10.25
2018-06-08T00:30:32.112Z,10.58
2018-06-08T00:33:02.106Z,10.15
2018-06-08T00:35:31.689Z,10.70
2018-06-08T00:38:01.690Z,10.15
2018-06-08T00:40:31.631Z,10.55
2018-06-08T00:43:01.670Z,9.80
2018-06-08T00:45:31.234Z,9.97
2018-06-08T00:48:01.266Z,9.98
2018-06-08T00:50:31.239Z,9.58
2018-06-08T00:53:01.239Z,9.33
2018-06-08T00:55:31.239Z,9.40
2018-06-08T00:58:01.279Z,9.13
2018-06-08T01:00:30.890Z,9.33
2018-06-08T01:03:00.928Z,10.08
2018-06-08T01:05:30.914Z,10.10
2018-06-08T01:08:00.909Z,10.25
2018-06-08T01:10:30.892Z,10.45
2018-06-08T01:13:00.943Z,10.47
2018-06-08T01:15:30.955Z,10.45
2018-06-08T01:18:00.995Z,11.00
2018-06-08T01:20:30.981Z,10.82
2018-06-08T01:23:01.034Z,11.63
2018-06-08T01:25:30.984Z,11.10
2018-06-08T01:28:00.988Z,10.60
2018-06-08T01:30:30.958Z,10.88
2018-06-08T01:33:01.014Z,10.70
2018-06-08T01:35:30.964Z,11.08
2018-06-08T01:38:00.959Z,10.78
2018-06-08T01:40:30.954Z,10.30
2018-06-08T01:43:00.984Z,10.58
2018-06-08T01:45:30.943Z,10.50
2018-06-08T01:48:00.930Z,10.82
2018-06-08T01:50:30.906Z,10.70
2018-06-08T01:53:00.944Z,10.63
2018-06-08T01:55:30.943Z,11.08
2018-06-08T01:58:00.937Z,10.90
2018-06-08T02:00:31.559Z,10.53
2018-06-08T02:03:01.587Z,11.28
2018-06-08T02:05:31.572Z,11.37
2018-06-08T02:08:02.712Z,10.40
2018-06-08T02:10:32.677Z,9.50
2018-06-08T02:13:02.722Z,9.20
2018-06-08T02:15:32.713Z,9.08
2018-06-08T02:18:04.196Z,8.80
2018-06-08T02:20:34.186Z,9.38
2018-06-08T02:23:04.198Z,9.53
2018-06-08T02:25:34.191Z,9.40
2018-06-08T02:28:04.187Z,9.28
2018-06-08T02:30:34.234Z,9.28
2018-06-08T02:33:04.211Z,9.80
2018-06-08T02:35:33.840Z,9.38
2018-06-08T02:38:03.870Z,9.20
2018-06-08T02:40:34.523Z,9.98
2018-06-08T02:43:04.585Z,9.53
2018-06-08T02:45:34.691Z,8.98
2018-06-08T02:48:05.620Z,9.00
2018-06-08T02:50:35.776Z,8.43
2018-06-08T02:53:05.779Z,8.73
2018-06-08T02:55:35.843Z,8.50
2018-06-08T02:58:05.894Z,9.47
2018-06-08T03:00:35.900Z,9.88
2018-06-08T03:03:06.026Z,9.70
2018-06-08T03:05:36.123Z,9.80
2018-06-08T03:08:06.381Z,9.70
2018-06-08T03:10:36.438Z,10.00
2018-06-08T03:13:06.510Z,9.75
2018-06-08T03:15:36.592Z,9.28
2018-06-08T03:18:06.899Z,10.65
2018-06-08T03:20:36.930Z,10.15
2018-06-08T03:23:06.896Z,10.70
2018-06-08T03:25:36.909Z,10.80
2018-06-08T03:28:06.542Z,10.32
2018-06-08T03:30:36.544Z,10.53
2018-06-08T03:33:06.626Z,10.23
2018-06-08T03:35:36.949Z,10.18
2018-06-08T03:38:07.073Z,9.93
2018-06-08T03:40:37.068Z,11.03
2018-06-08T03:43:07.350Z,11.48
2018-06-08T03:45:37.374Z,10.43
2018-06-08T03:48:07.487Z,10.80
2018-06-08T03:50:37.472Z,12.05
2018-06-08T03:53:07.465Z,11.57
2018-06-08T03:55:40.448Z,11.33
2018-06-08T03:58:10.470Z,10.23
2018-06-08T04:00:40.480Z,10.90
2018-06-08T04:03:10.071Z,12.60
2018-06-08T04:05:40.086Z,11.50
2018-06-08T04:08:10.096Z,11.12
2018-06-08T04:10:40.082Z,10.32
2018-06-08T04:13:10.059Z,10.38
2018-06-08T04:15:39.678Z,11.50
2018-06-08T04:18:09.617Z,11.45
2018-06-08T04:20:39.646Z,11.60
2018-06-08T04:23:09.637Z,12.63
2018-06-08T04:25:39.261Z,13.43
2018-06-08T04:28:09.297Z,13.60
2018-06-08T04:30:39.255Z,13.85
2018-06-08T04:33:09.220Z,13.53
2018-06-08T04:35:39.242Z,13.87
2018-06-08T04:38:09.216Z,13.53
2018-06-08T04:40:39.207Z,12.90
2018-06-08T04:43:09.125Z,13.40
2018-06-08T04:45:39.101Z,13.40
2018-06-08T04:48:09.094Z,14.98
2018-06-08T04:50:39.076Z,15.10
2018-06-08T04:53:09.055Z,14.38
2018-06-08T04:55:39.052Z,12.47
2018-06-08T04:58:09.010Z,12.80
2018-06-08T05:00:39.033Z,12.50
2018-06-08T05:03:08.579Z,11.35
2018-06-08T05:05:38.610Z,10.40
2018-06-08T05:08:08.703Z,9.35
2018-06-08T05:10:38.686Z,10.00
2018-06-08T05:13:08.252Z,8.85
2018-06-08T05:15:38.175Z,7.45
2018-06-08T05:18:08.178Z,8.65
2018-06-08T05:20:38.152Z,8.00
2018-06-08T05:23:08.131Z,7.90
2018-06-08T05:25:38.085Z,7.60
2018-06-08T05:28:08.096Z,6.75
2018-06-08T05:30:38.048Z,6.20
2018-06-08T05:33:08.039Z,5.75
2018-06-08T05:35:37.996Z,6.28
2018-06-08T05:38:08.036Z,6.00
2018-06-08T05:40:38.028Z,5.83
2018-06-08T05:43:07.747Z,5.70
2018-06-08T05:45:37.794Z,5.12
2018-06-08T05:48:07.874Z,5.43
2018-06-08T05:50:37.566Z,3.35
2018-06-08T05:53:07.723Z,3.40
2018-06-08T05:55:37.760Z,4.05
2018-06-08T05:58:07.788Z,3.70
2018-06-08T06:00:37.828Z,4.22
2018-06-08T06:03:08.025Z,4.70
2018-06-08T06:05:38.347Z,4.33
2018-06-08T06:08:09.015Z,3.30
2018-06-08T06:10:39.279Z,2.85
2018-06-08T06:13:09.961Z,3.33
2018-06-08T06:15:40.248Z,3.00
2018-06-08T06:18:10.334Z,3.10
2018-06-08T06:20:40.374Z,3.98
2018-06-08T06:23:10.599Z,3.60
2018-06-08T06:25:40.638Z,2.95
2018-06-08T06:28:10.751Z,3.00
2018-06-08T06:30:40.805Z,2.95
2018-06-08T06:33:10.939Z,3.20
2018-06-08T06:35:41.398Z,3.45
2018-06-08T06:38:11.704Z,3.70
2018-06-08T06:40:41.744Z,3.75
2018-06-08T06:43:11.780Z,3.40
2018-06-08T06:45:41.883Z,3.33
2018-06-08T06:48:12.024Z,3.20
2018-06-08T06:50:42.120Z,3.30
2018-06-08T06:53:12.169Z,3.20
2018-06-08T06:55:43.050Z,3.60
2018-06-08T06:58:13.056Z,3.50
2018-06-08T07:00:43.135Z,3.90
2018-06-08T07:03:13.299Z,3.80
2018-06-08T07:05:43.428Z,3.55
2018-06-08T07:08:13.715Z,3.55
2018-06-08T07:10:43.791Z,3.40
2018-06-08T07:13:13.811Z,3.40
2018-06-08T07:15:43.960Z,3.20
2018-06-08T07:18:14.127Z,3.00
2018-06-08T07:20:44.225Z,2.87
2018-06-08T07:23:14.393Z,3.02
2018-06-08T07:25:44.527Z,2.80
2018-06-08T07:28:14.552Z,2.98
2018-06-08T07:30:44.611Z,2.95
2018-06-08T07:33:14.637Z,2.80
2018-06-08T07:35:44.704Z,2.70
2018-06-08T07:38:14.777Z,3.12
2018-06-08T07:40:44.905Z,3.00
2018-06-08T07:43:15.061Z,3.15
2018-06-08T07:45:44.777Z,3.00
2018-06-08T07:48:14.838Z,3.33
2018-06-08T07:50:44.885Z,3.70
2018-06-08T07:53:15.064Z,3.72
2018-06-08T07:55:45.227Z,3.90
2018-06-08T07:58:15.438Z,4.42
2018-06-08T08:00:45.411Z,4.90
2018-06-08T08:03:15.468Z,4.90
2018-06-08T08:05:45.448Z,4.78
2018-06-08T08:08:15.642Z,4.33
2018-06-08T08:10:45.728Z,4.35
2018-06-08T08:13:15.761Z,3.83
2018-06-08T08:15:45.945Z,3.83
2018-06-08T08:18:15.926Z,3.80
2018-06-08T08:20:46.546Z,3.90
2018-06-08T08:23:16.645Z,4.50
2018-06-08T08:25:46.751Z,4.72
2018-06-08T08:28:16.780Z,4.80
2018-06-08T08:30:46.900Z,5.17
2018-06-08T08:33:16.941Z,5.35
2018-06-08T08:35:47.061Z,5.20
2018-06-08T08:38:17.012Z,5.70
2018-06-08T08:40:47.026Z,4.85
2018-06-08T08:43:17.075Z,6.03
2018-06-08T08:45:47.160Z,6.15
2018-06-08T08:48:17.138Z,5.53
2018-06-08T08:50:47.221Z,5.62
2018-06-08T08:53:17.764Z,6.00
2018-06-08T08:55:47.879Z,5.15
2018-06-08T08:58:17.931Z,6.40
2018-06-08T09:00:47.975Z,5.87
2018-06-08T09:03:17.560Z,6.45
2018-06-08T09:05:47.638Z,5.70
2018-06-08T09:08:17.933Z,6.37
2018-06-08T09:10:48.036Z,5.83
2018-06-08T09:13:18.087Z,6.20
2018-06-08T09:15:48.125Z,6.05
2018-06-08T09:18:18.119Z,6.00
2018-06-08T09:20:47.747Z,5.92
2018-06-08T09:23:17.756Z,5.35
2018-06-08T09:25:47.779Z,5.83
2018-06-08T09:28:17.787Z,5.70
2018-06-08T09:30:47.862Z,5.45
2018-06-08T09:33:17.842Z,5.42
2018-06-08T09:35:47.849Z,5.78
2018-06-08T09:38:17.875Z,5.85
2018-06-08T09:40:47.529Z,6.40
2018-06-08T09:43:17.542Z,5.83
2018-06-08T09:45:47.573Z,6.85
2018-06-08T09:48:17.571Z,6.10
2018-06-08T09:50:47.597Z,6.20
2018-06-08T09:53:17.594Z,6.67
2018-06-08T09:55:47.615Z,6.10
2018-06-08T09:58:17.221Z,6.70
2018-06-08T10:00:47.197Z,7.67
2018-06-08T10:03:17.339Z,7.07
2018-06-08T10:05:47.369Z,6.40
2018-06-08T10:08:17.332Z,6.20
2018-06-08T10:10:47.372Z,6.60
2018-06-08T10:13:17.340Z,6.78
2018-06-08T10:15:47.347Z,6.90
2018-06-08T10:18:17.323Z,6.47
2018-06-08T10:20:47.345Z,6.37
2018-06-08T10:23:17.311Z,6.58
2018-06-08T10:25:46.980Z,6.12
2018-06-08T10:28:16.999Z,5.90
2018-06-08T10:30:47.043Z,7.40
2018-06-08T10:33:16.989Z,7.10
2018-06-08T10:35:47.337Z,6.65
2018-06-08T10:38:17.336Z,6.87
2018-06-08T10:40:47.367Z,7.50
2018-06-08T10:43:17.375Z,6.80
2018-06-08T10:45:47.385Z,7.08
2018-06-08T10:48:17.367Z,7.33
2018-06-08T10:50:47.401Z,6.97
2018-06-08T10:53:17.397Z,7.10
2018-06-08T10:55:47.460Z,6.55
2018-06-08T10:58:17.487Z,6.85
2018-06-08T11:00:47.525Z,6.33
2018-06-08T11:03:17.153Z,6.03
2018-06-08T11:05:47.192Z,6.17
2018-06-08T11:08:17.431Z,6.22
2018-06-08T11:10:48.208Z,6.50
2018-06-08T11:13:18.269Z,6.03
2018-06-08T11:15:48.282Z,6.20
2018-06-08T11:18:18.885Z,5.95
2018-06-08T11:20:48.929Z,6.25
2018-06-08T11:23:18.949Z,5.95
2018-06-08T11:25:49.382Z,5.53
2018-06-08T11:28:19.463Z,5.80
2018-06-08T11:30:49.435Z,6.07
2018-06-08T11:33:19.428Z,5.87
2018-06-08T11:35:49.918Z,5.30
2018-06-08T11:38:19.967Z,5.83
2018-06-08T11:40:49.967Z,5.20
2018-06-08T11:43:19.957Z,5.53
2018-06-08T11:45:50.009Z,5.45
2018-06-08T11:48:19.988Z,5.62
2018-06-08T11:50:49.971Z,5.42
2018-06-08T11:53:20.076Z,5.40
2018-06-08T11:55:50.370Z,5.70
2018-06-08T11:58:20.476Z,5.42
2018-06-08T12:00:50.899Z,5.92
2018-06-08T12:03:21.216Z,5.40
2018-06-08T12:05:51.605Z,5.05
2018-06-08T12:08:21.756Z,5.20
2018-06-08T12:10:52.152Z,5.35
2018-06-08T12:13:22.345Z,5.30
2018-06-08T12:15:52.556Z,5.47
2018-06-08T12:18:22.807Z,5.25
2018-06-08T12:20:52.914Z,5.15
2018-06-08T12:23:23.294Z,4.80
2018-06-08T12:25:54.877Z,4.58
2018-06-08T12:28:25.300Z,4.70
2018-06-08T12:30:55.640Z,4.85
2018-06-08T12:33:25.792Z,4.92
2018-06-08T12:35:56.142Z,5.28
2018-06-08T12:38:26.812Z,4.90
2018-06-08T12:40:57.143Z,4.90
2018-06-08T12:43:27.284Z,4.87
2018-06-08T12:45:57.596Z,4.90
2018-06-08T12:48:28.042Z,4.90
2018-06-08T12:50:58.558Z,5.17
2018-06-08T12:53:28.915Z,5.33
2018-06-08T12:55:59.074Z,4.97
2018-06-08T12:58:29.152Z,4.53
2018-06-08T13:00:59.223Z,4.97
2018-06-08T13:03:29.232Z,4.75
2018-06-08T13:06:00.350Z,4.90
2018-06-08T13:08:30.509Z,4.85
2018-06-08T13:11:01.149Z,5.10
2018-06-08T13:13:31.681Z,5.00
2018-06-08T13:16:02.763Z,5.05
2018-06-08T13:18:32.891Z,5.00
2018-06-08T13:21:03.010Z,4.97
2018-06-08T13:23:33.308Z,5.45
2018-06-08T13:26:03.716Z,4.97
2018-06-08T13:28:34.513Z,5.50
2018-06-08T13:31:04.867Z,5.47
2018-06-08T13:33:35.024Z,5.35
2018-06-08T13:36:05.013Z,5.70
2018-06-08T13:38:35.121Z,5.25
2018-06-08T13:41:05.347Z,5.70
2018-06-08T13:43:35.459Z,5.53
2018-06-08T13:46:19.487Z,5.60
2018-06-08T13:48:49.720Z,5.97
2018-06-08T13:51:19.932Z,5.60
2018-06-08T13:53:49.592Z,5.43
2018-06-08T13:56:19.677Z,5.67
2018-06-08T13:58:50.049Z,5.80
2018-06-08T14:01:20.448Z,5.90
2018-06-08T14:03:50.490Z,6.00
2018-06-08T14:06:20.500Z,6.03
2018-06-08T14:08:50.474Z,5.67
2018-06-08T14:11:20.571Z,5.40
2018-06-08T14:13:50.550Z,5.80
2018-06-08T14:16:20.563Z,5.72
2018-06-08T14:18:50.559Z,5.80
2018-06-08T14:21:20.543Z,5.40
2018-06-08T14:23:50.530Z,5.50
2018-06-08T14:26:20.584Z,5.40
2018-06-08T14:28:50.594Z,5.35
2018-06-08T14:31:20.651Z,5.83
2018-06-08T14:33:51.250Z,5.60
2018-06-08T14:36:21.261Z,5.85
2018-06-08T14:38:51.269Z,5.40
2018-06-08T14:41:21.281Z,5.75
2018-06-08T14:43:50.896Z,5.55
2018-06-08T14:46:21.015Z,5.30
2018-06-08T14:48:51.084Z,5.63
2018-06-08T14:51:21.111Z,5.40
2018-06-08T14:53:51.138Z,5.45
2018-06-08T14:56:21.190Z,5.60
2018-06-08T14:58:50.776Z,5.87
2018-06-08T15:01:20.771Z,5.70
2018-06-08T15:03:50.751Z,5.75
2018-06-08T15:06:20.778Z,5.80
2018-06-08T15:08:50.797Z,6.30
2018-06-08T15:11:20.866Z,5.90
2018-06-08T15:13:50.838Z,5.80
2018-06-08T15:16:21.110Z,5.63
2018-06-08T15:18:51.265Z,5.90
2018-06-08T15:21:21.214Z,5.80
2018-06-08T15:23:50.853Z,5.67
2018-06-08T15:26:20.907Z,5.60
2018-06-08T15:28:50.854Z,5.83
2018-06-08T15:31:20.904Z,5.62
2018-06-08T15:33:50.949Z,6.00
2018-06-08T15:36:20.972Z,5.63
2018-06-08T15:38:51.007Z,6.00
2018-06-08T15:41:21.055Z,5.70
2018-06-08T15:43:51.069Z,6.22
2018-06-08T15:46:21.574Z,5.92
2018-06-08T15:48:51.692Z,5.85
2018-06-08T15:51:22.316Z,6.00
2018-06-08T15:53:52.288Z,5.60
2018-06-08T15:56:21.946Z,5.62
2018-06-08T15:58:51.964Z,6.10
2018-06-08T16:01:22.038Z,5.70
2018-06-08T16:03:52.016Z,5.90
2018-06-08T16:06:22.036Z,5.80
2018-06-08T16:08:52.057Z,5.80
2018-06-08T16:11:22.061Z,6.10
2018-06-08T16:13:52.096Z,6.37
2018-06-08T16:16:22.070Z,6.30
2018-06-08T16:18:52.090Z,5.60
2018-06-08T16:21:21.695Z,6.03
2018-06-08T16:23:51.726Z,5.40
2018-06-08T16:26:21.743Z,6.10
2018-06-08T16:28:52.597Z,5.85
2018-06-08T16:31:22.586Z,5.75
2018-06-08T16:33:52.593Z,6.47
2018-06-08T16:36:22.619Z,6.40
2018-06-08T16:38:52.618Z,6.17
2018-06-08T16:41:22.607Z,6.10
2018-06-08T16:43:52.623Z,6.65
2018-06-08T16:46:22.600Z,6.45
2018-06-08T16:48:52.571Z,6.00
2018-06-08T16:51:22.554Z,6.10
2018-06-08T16:53:52.225Z,6.30
2018-06-08T16:56:22.232Z,6.10
2018-06-08T16:58:52.338Z,6.28
2018-06-08T17:01:22.340Z,6.55
2018-06-08T17:03:52.366Z,6.67
2018-06-08T17:06:22.384Z,6.50
2018-06-08T17:08:52.456Z,6.45
2018-06-08T17:11:22.454Z,6.05
2018-06-08T17:13:52.509Z,6.72
2018-06-08T17:16:22.507Z,6.33
2018-06-08T17:18:52.559Z,6.70
2018-06-08T17:21:22.634Z,6.30
2018-06-08T17:23:52.843Z,6.03
2018-06-08T17:26:22.790Z,6.90
2018-06-08T17:28:52.869Z,6.80
2018-06-08T17:31:22.490Z,6.90
2018-06-08T17:33:52.627Z,7.35
2018-06-08T17:36:23.274Z,6.72
2018-06-08T17:38:53.362Z,6.90
2018-06-08T17:41:23.362Z,7.00
2018-06-08T17:43:53.403Z,7.03
2018-06-08T17:46:23.431Z,6.55
2018-06-08T17:48:54.238Z,6.80
2018-06-08T17:51:24.510Z,6.58
2018-06-08T17:53:54.895Z,6.62
2018-06-08T17:56:24.987Z,7.08
2018-06-08T17:58:55.047Z,6.62
2018-06-08T18:01:25.126Z,7.17
2018-06-08T18:03:55.218Z,6.25
2018-06-08T18:06:25.460Z,7.10
2018-06-08T18:08:55.596Z,4.90
2018-06-08T18:11:25.647Z,4.20
2018-06-08T18:13:56.312Z,3.30
2018-06-08T18:16:27.286Z,3.12
2018-06-08T18:18:57.330Z,2.70
2018-06-08T18:21:27.436Z,2.85
2018-06-08T18:23:57.744Z,2.77
2018-06-08T18:26:28.948Z,2.80
2018-06-08T18:28:59.148Z,3.10
2018-06-08T18:31:29.232Z,2.85
2018-06-08T18:33:59.297Z,3.80
2018-06-08T18:36:31.547Z,3.98
2018-06-08T18:39:01.667Z,4.72
2018-06-08T18:41:31.686Z,4.67
2018-06-08T18:44:01.725Z,5.03
2018-06-08T18:46:32.456Z,6.33
2018-06-08T18:49:02.509Z,6.58
2018-06-08T18:51:32.611Z,6.42
2018-06-08T18:54:02.595Z,6.83
2018-06-08T18:56:32.662Z,6.72
2018-06-08T18:59:02.634Z,6.35
2018-06-08T19:01:32.246Z,6.70
2018-06-08T19:04:01.846Z,6.17
2018-06-08T19:06:31.904Z,6.70
2018-06-08T19:09:01.995Z,6.20
2018-06-08T19:11:32.447Z,6.95
2018-06-08T19:14:02.506Z,7.08
2018-06-08T19:16:34.888Z,7.58
2018-06-08T19:19:04.633Z,7.20
2018-06-08T19:21:34.261Z,6.83
2018-06-08T19:24:04.295Z,6.70
2018-06-08T19:26:34.291Z,6.50
2018-06-08T19:29:04.353Z,7.10
2018-06-08T19:31:34.510Z,6.75
2018-06-08T19:34:04.523Z,6.67
2018-06-08T19:36:34.525Z,6.30
2018-06-08T19:39:06.527Z,6.30
2018-06-08T19:41:36.467Z,6.85
2018-06-08T19:44:06.493Z,7.12
2018-06-08T19:46:36.605Z,7.45
2018-06-08T19:49:06.249Z,7.12
2018-06-08T19:51:36.428Z,7.53
2018-06-08T19:54:06.619Z,7.45
2018-06-08T19:56:36.795Z,7.62
2018-06-08T19:59:06.963Z,7.90
2018-06-08T20:01:37.147Z,7.75
2018-06-08T20:04:07.219Z,8.08
2018-06-08T20:06:37.456Z,8.07
2018-06-08T20:09:09.149Z,8.30
2018-06-08T20:11:39.250Z,8.05
2018-06-08T20:14:10.036Z,8.75
2018-06-08T20:16:40.531Z,9.00
2018-06-08T20:19:12.107Z,9.58
2018-06-08T20:21:42.773Z,8.90
2018-06-08T20:24:13.290Z,9.20
2018-06-08T20:26:43.651Z,9.38
2018-06-08T20:29:14.436Z,9.10
2018-06-08T20:31:44.825Z,8.55
2018-06-08T20:34:15.043Z,8.53
2018-06-08T20:36:45.442Z,8.58
2018-06-08T20:39:15.776Z,9.05
2018-06-08T20:41:46.304Z,8.70
2018-06-08T20:44:16.468Z,10.23
2018-06-08T20:46:46.776Z,11.50
2018-06-08T20:49:16.985Z,10.08
2018-06-08T20:51:47.143Z,13.38
2018-06-08T20:54:17.201Z,15.13
2018-06-08T20:56:57.168Z,9.53
2018-06-08T20:59:27.351Z,7.95
2018-06-08T21:01:57.587Z,7.75
2018-06-08T21:04:27.707Z,7.40
2018-06-08T21:06:57.747Z,7.15
2018-06-08T21:09:27.827Z,6.75
2018-06-08T21:11:57.848Z,7.10
2018-06-08T21:14:27.910Z,8.07
2018-06-08T21:16:57.943Z,8.45
2018-06-08T21:19:28.044Z,7.97
2018-06-08T21:21:58.184Z,7.58
2018-06-08T21:24:28.265Z,7.60
2018-06-08T21:26:58.853Z,6.83
2018-06-08T21:29:28.949Z,7.60
2018-06-08T21:31:58.784Z,7.60
2018-06-08T21:34:28.866Z,7.60
2018-06-08T21:36:58.920Z,7.62
2018-06-08T21:39:29.081Z,8.08
2018-06-08T21:41:59.178Z,8.18
2018-06-08T21:44:29.364Z,7.72
2018-06-08T21:46:59.547Z,8.73
2018-06-08T21:49:30.155Z,8.57
2018-06-08T21:52:01.015Z,8.63
2018-06-08T21:54:31.342Z,8.88
2018-06-08T21:57:01.795Z,8.78
2018-06-08T21:59:31.858Z,9.03
2018-06-08T22:02:01.936Z,9.03
2018-06-08T22:04:32.043Z,8.60
2018-06-08T22:07:02.042Z,8.33
2018-06-08T22:09:32.085Z,8.48
2018-06-08T22:12:02.152Z,8.88
2018-06-08T22:14:31.816Z,9.30
2018-06-08T22:17:01.791Z,8.93
2018-06-08T22:19:31.853Z,9.43
2018-06-08T22:22:01.850Z,8.83
2018-06-08T22:24:31.902Z,9.60
2018-06-08T22:27:01.848Z,9.05
2018-06-08T22:29:31.823Z,9.33
2018-06-08T22:32:01.789Z,9.78
2018-06-08T22:34:31.782Z,9.55
2018-06-08T22:37:01.755Z,10.40
2018-06-08T22:39:32.121Z,11.10
2018-06-08T22:42:02.102Z,11.78
2018-06-08T22:44:32.200Z,12.10
2018-06-08T22:47:02.154Z,12.00
2018-06-08T22:49:32.157Z,12.53
2018-06-08T22:52:02.247Z,12.90
2018-06-08T22:54:32.224Z,13.20
2018-06-08T22:57:02.522Z,14.53
2018-06-08T22:59:32.544Z,15.00
2018-06-08T23:02:02.622Z,15.58
2018-06-08T23:04:32.602Z,16.80
2018-06-08T23:07:02.173Z,17.42
2018-06-08T23:09:32.184Z,19.30
2018-06-08T23:12:02.131Z,21.50
2018-06-08T23:14:31.723Z,22.60
2018-06-08T23:17:01.698Z,23.37
2018-06-08T23:19:31.696Z,23.10
2018-06-08T23:22:01.261Z,25.25
2018-06-08T23:24:31.257Z,25.17
2018-06-08T23:27:01.232Z,26.13
2018-06-08T23:29:30.835Z,27.10
2018-06-08T23:32:00.798Z,28.32
2018-06-08T23:34:30.815Z,30.30
2018-06-08T23:37:00.757Z,29.18
2018-06-08T23:39:30.759Z,31.75
2018-06-08T23:42:00.697Z,30.97
2018-06-08T23:44:30.674Z,31.23
2018-06-08T23:47:00.273Z,30.35
2018-06-08T23:49:30.237Z,29.52
2018-06-08T23:52:00.213Z,28.55
2018-06-08T23:54:30.164Z,28.17
2018-06-08T23:57:00.197Z,27.42
2018-06-08T23:59:30.155Z,26.73
